IRONMAN Tallinn 2018
Skip Navigation Links
Results
Course Map
Details
4 Aug 2018
HyperLink
Page 1 of 6 (272 items)
[1]23456
Pos
Race No
Fav
Print
Name
Time
Category
Cat Pos
Gender
Gen Pos
Club
Country
Pace
Swim
O/Pos
T1
O/Pos
Cycle
O/Pos
T2
O/Pos
Run
O/Pos
188Arturs Liepa00:48:04All Ages1Male1 LAT  00:05:15200:01:21100:27:54600:00:50100:12:471
2164Aleksandr Sepp00:51:33All Ages2Male2 EST  00:07:132300:02:273400:26:43100:01:143500:13:589
38Marti Alt00:52:08All Ages3Male3 EST  00:06:332000:02:151400:29:272000:01:00900:12:572
4185Andrei Tserednik00:52:38All Ages4Male421CCEST  00:06:29400:01:30300:28:471300:01:123000:14:4219
5256Timur Fazõlov00:52:40All Ages5Male5TakoivotsportEST  00:09:417800:01:44600:27:04200:01:031400:13:103
6110Oskar Miller00:53:22All Ages6Male621CCEST  00:07:13700:02:06900:28:501400:00:59600:14:1611
7202Rihard Viherpuu00:53:37All Ages7Male7TriSmileEST  00:05:24300:01:30400:31:025400:00:59800:14:4422
8246Aho Augasmägi00:53:48All Ages8Male821CCEST  00:06:551400:02:181700:27:44500:01:267700:15:2637
931Oskar Hanko00:54:03All Ages9Male9Paide UjumisklubiEST  00:05:47500:01:26200:30:394300:00:55200:15:1830
1076Marek Kõiv00:54:22All Ages10Male10Sportland TeamEST  00:08:077000:02:334800:28:01800:01:082300:14:3518
11157Karl-Kristjan Saks00:55:05All Ages11Male11 EST  00:07:012600:02:141300:28:191000:01:031300:16:3064
12211Ardo Virkebau00:55:06All Ages12Male12 EST  00:07:075800:02:488000:30:083500:01:257300:13:406
134Dmitri Aleksejev00:55:07All Ages13Male13 EST  00:08:459600:01:37500:29:001500:01:051600:14:4320
14186Marek Tõnismäe00:55:08All Ages14Male14 EST  00:06:33800:02:201900:30:394400:01:133400:14:2413
15265Kristjan Suits00:55:18All Ages15Male15 EST  00:07:353700:03:0610400:27:42400:01:4513500:15:1229
16183Ejgil Troelsen00:55:56All Ages16Male16Farsø Tri & TrimDEN  00:08:464800:03:1011800:27:56700:01:3410500:14:3317
17245Maksim Pavljukov00:56:19All Ages17Male17 EST  00:06:57900:02:334900:29:533300:01:3711300:15:2132
18225Rivo Pärna00:56:45All Ages18Male18Telia IM TeamEST  00:07:032800:02:355400:29:322200:01:175000:16:2057
19258Tarmo Visnapuu00:56:55All Ages19Male19Viimsi SportEST  00:07:503000:02:355600:27:38300:01:4012200:17:1488
2057Kert Kask00:56:57All Ages20Male20 EST  00:08:575200:02:171600:30:474600:01:4212800:13:174
21252Martin Teetsov00:57:01All Ages21Male21 EST  00:08:053900:02:273300:29:513200:01:3310100:15:0728
2263Margus Klaan00:57:09All Ages22Male22KultuuriministeeriumEST  00:09:0113300:01:56700:31:295800:00:57300:13:477
23270Alexey Sidorenko00:57:21All Ages23Male23   00:09:177600:02:151500:29:161800:02:2917900:14:0510
24158Rene Salk00:57:32All Ages24Male24 EST  00:06:561900:02:202000:30:214000:01:153900:16:4068
25207Georgi Vinogradov00:57:37All Ages25Male25 EST  00:07:176000:02:283700:31:526800:01:062100:14:5624
26184Kim Truija00:57:41All Ages26Male26 EST  00:08:285700:02:00800:29:352300:01:205800:16:2058
27188Tambet Tõnisson00:57:49All Ages27Male27 EST  00:08:395600:02:294100:29:473100:01:3510700:15:2233
28264Kristjan Poltimäe00:57:50All Ages28Male28 EST  00:07:404400:02:242800:30:224100:01:153700:16:1155
2922Markus Faster00:57:58All Ages29Male29 EST  00:08:1310500:03:2313600:29:071700:01:5315300:15:2535
3021Alar Ervin00:58:13All Ages30Male30 EST  00:08:343500:02:314400:30:063400:01:133200:15:5146
31259Karl Lausing00:58:25All Ages31Male31 EST  00:06:565000:02:273600:29:362600:01:236900:18:04112
32126Ardo Pajur00:58:30All Ages32Male32Swedbank SpordiklubiEST  00:08:046700:03:0710700:30:093600:01:5015000:15:2234
33108Ergo Mikkor00:58:31All Ages33Male33 EST  00:08:556100:02:436900:30:093700:01:174900:15:2839
34193Kenneth Vallik00:58:34All Ages34Male3421CC TriatloniklubiEST  00:06:551300:02:242700:31:185600:01:185300:16:4170
35208Vladimir Vinogradov00:58:46All Ages35Male35 EST  00:08:398800:02:232600:29:322100:01:4814200:16:2760
36263Tarmo Lauri00:58:53All Ages36Male36 EST  00:11:1716100:02:284000:29:412900:01:3410400:13:558
37179Are Tints00:59:06All Ages37Male37Team ElamuspankEST  00:07:437400:02:467300:31:516700:01:153800:15:3440
38111Sverre Mäesepp00:59:12All Ages38Male38 EST  00:08:508400:02:447100:29:061600:01:329700:17:0281
39138Auris Prääm00:59:23All Ages39Male39 EST  00:07:132500:04:0018100:29:463000:01:4312900:16:4371
4010Geir Tristan Anton00:59:29All Ages40Male40A2K SpordiklubiEST  00:08:3310700:03:5217400:30:414500:00:59500:15:2536
4111Tair Anton00:59:29All Ages41Male41A2K Spordiklubi/ Pärnu RannastaadionEST  00:11:4310900:02:335000:28:311200:01:174600:15:2638
42152Silver Rätsep00:59:29All Ages42Male42 EST  00:08:144600:02:253000:30:153900:01:288800:17:0884
43238Kaspar Kalle00:59:30All Ages43Male43 EST  00:08:086600:02:589100:31:165500:01:226400:15:4744
44151Andrus Rootalu00:59:34All Ages44Male44Esvika Elekter ASEST  00:07:141600:02:508300:30:504800:01:216300:17:2090
45251Kristel Tukk00:59:41All Ages1Female1TriPassion TriatloniklubiEST  00:07:422200:02:131100:30:585200:01:267600:17:2492
46128Taivo Pallotedder00:59:49All Ages45Male45Sportland TeamEST  00:10:377900:02:222500:29:362500:01:195400:15:5749
47167Peeter Siitan00:59:56All Ages46Male46 EST  00:08:032400:02:324500:31:546900:01:247100:16:0552
4817Rain Bõmberg01:00:00All Ages47Male47 EST  00:10:0715200:03:0610300:31:557100:01:329800:13:215
4967Krete Koovit01:00:03All Ages2Female2 EST  00:08:557100:02:283800:31:205700:00:59700:16:2459
50200Rene Ron Vest01:00:14All Ages48Male48 EST  00:06:422100:02:294200:34:0411200:00:58400:16:0350
Page 1 of 6 (272 items)
[1]23456

HyperLink Copyright (c) G Vincent, 2018